createdAt,value
2023-03-13T00:02:36.582Z,7.17
2023-03-13T00:07:41.959Z,10.50
2023-03-13T00:12:47.486Z,11.83
2023-03-13T00:17:52.899Z,13.63
2023-03-13T00:22:58.563Z,13.60
2023-03-13T00:28:03.950Z,15.83
2023-03-13T00:33:10.470Z,18.63
2023-03-13T00:38:15.932Z,20.33
2023-03-13T00:43:21.396Z,17.43
2023-03-13T00:48:27.204Z,17.20
2023-03-13T00:53:32.733Z,18.10
2023-03-13T00:58:40.882Z,21.27
2023-03-13T01:03:49.480Z,19.80
2023-03-13T01:08:55.401Z,16.97
2023-03-13T01:14:03.825Z,23.37
2023-03-13T01:19:15.953Z,20.77
2023-03-13T01:24:24.706Z,24.03
2023-03-13T01:29:30.280Z,22.73
2023-03-13T01:34:37.190Z,24.07
2023-03-13T01:39:42.990Z,24.40
2023-03-13T01:44:54.731Z,25.27
2023-03-13T01:50:01.326Z,23.43
2023-03-13T01:55:27.025Z,22.77
2023-03-13T02:00:36.840Z,16.60
2023-03-13T02:05:45.363Z,20.77
2023-03-13T02:10:57.617Z,20.03
2023-03-13T02:16:04.306Z,21.47
2023-03-13T02:21:43.336Z,21.90
2023-03-13T02:26:49.106Z,18.17
2023-03-13T02:31:55.498Z,19.73
2023-03-13T02:37:02.882Z,22.90
2023-03-13T02:42:09.823Z,19.83
2023-03-13T02:47:24.702Z,19.97
2023-03-13T02:52:38.473Z,19.87
2023-03-13T02:57:44.351Z,19.57
2023-03-13T03:02:49.832Z,18.17
2023-03-13T03:07:55.523Z,17.80
2023-03-13T03:13:01.640Z,15.87
2023-03-13T03:18:08.391Z,16.07
2023-03-13T03:23:14.065Z,24.33
2023-03-13T03:28:19.608Z,18.60
2023-03-13T03:33:25.755Z,15.50
2023-03-13T03:38:32.086Z,16.50
2023-03-13T03:43:37.737Z,18.00
2023-03-13T03:48:44.023Z,20.60
2023-03-13T03:53:50.043Z,18.23
2023-03-13T03:58:55.645Z,16.97
2023-03-13T04:04:03.647Z,18.50
2023-03-13T04:09:11.008Z,18.67
2023-03-13T04:14:16.766Z,18.83
2023-03-13T04:19:23.055Z,14.60
2023-03-13T04:24:29.148Z,17.60
2023-03-13T04:29:35.842Z,20.17
2023-03-13T04:34:43.608Z,13.70
2023-03-13T04:39:56.880Z,15.37
2023-03-13T04:45:04.018Z,17.60
2023-03-13T04:50:27.383Z,18.07
2023-03-13T04:55:52.790Z,15.00
2023-03-13T05:01:06.595Z,17.10
2023-03-13T05:06:16.676Z,12.70
2023-03-13T05:11:36.108Z,14.30
2023-03-13T05:17:12.119Z,12.00
2023-03-13T05:22:34.628Z,13.43
2023-03-13T05:27:59.779Z,15.53
2023-03-13T05:33:06.887Z,13.83
2023-03-13T05:38:23.328Z,11.40
2023-03-13T05:43:46.694Z,9.00
2023-03-13T05:48:53.927Z,9.67
2023-03-13T05:54:01.064Z,14.93
2023-03-13T05:59:24.665Z,13.90
2023-03-13T06:04:38.193Z,10.70
2023-03-13T06:09:43.924Z,17.13
2023-03-13T06:14:49.549Z,15.07
2023-03-13T06:20:02.628Z,10.87
2023-03-13T06:25:08.991Z,11.03
2023-03-13T06:30:14.695Z,11.10
2023-03-13T06:35:20.405Z,7.70
2023-03-13T06:40:25.940Z,16.77
2023-03-13T06:45:31.686Z,8.13
2023-03-13T06:50:42.170Z,11.20
2023-03-13T06:55:49.286Z,7.07
2023-03-13T07:00:54.976Z,10.43
2023-03-13T07:06:01.091Z,11.67
2023-03-13T07:11:09.942Z,13.10
2023-03-13T07:16:16.624Z,9.20
2023-03-13T07:21:22.104Z,9.90
2023-03-13T07:26:27.675Z,10.73
2023-03-13T07:31:34.300Z,12.53
2023-03-13T07:36:41.783Z,7.87
2023-03-13T07:41:47.649Z,11.40
2023-03-13T07:46:54.970Z,11.17
2023-03-13T07:52:00.563Z,13.23
2023-03-13T07:57:06.875Z,8.07
2023-03-13T08:02:17.253Z,11.10
2023-03-13T08:07:22.940Z,9.33
2023-03-13T08:12:28.398Z,11.70
2023-03-13T08:17:33.945Z,13.90
2023-03-13T08:22:39.419Z,8.87
2023-03-13T08:27:45.191Z,7.63
2023-03-13T08:32:50.885Z,15.47
2023-03-13T08:37:56.388Z,6.43
2023-03-13T08:43:01.849Z,10.67
2023-03-13T08:48:07.573Z,13.30
2023-03-13T08:53:13.144Z,9.67
2023-03-13T08:58:19.121Z,10.07
2023-03-13T09:03:24.736Z,12.80
2023-03-13T09:08:31.834Z,9.33
2023-03-13T09:13:39.946Z,6.57
2023-03-13T09:18:46.369Z,9.33
2023-03-13T09:23:52.859Z,9.57
2023-03-13T09:28:58.736Z,9.43
2023-03-13T09:34:05.074Z,13.30
2023-03-13T09:39:10.567Z,7.20
2023-03-13T09:44:24.783Z,6.83
2023-03-13T09:49:37.103Z,8.47
2023-03-13T09:55:06.919Z,10.23
2023-03-13T10:00:24.430Z,5.47
2023-03-13T10:05:31.563Z,6.67
2023-03-13T10:10:42.827Z,7.67
2023-03-13T10:15:57.198Z,8.30
2023-03-13T10:21:08.475Z,4.23
2023-03-13T10:26:20.019Z,7.03
2023-03-13T10:31:37.203Z,3.30
2023-03-13T10:36:46.053Z,6.97
2023-03-13T10:41:53.863Z,5.23
2023-03-13T10:47:02.824Z,5.20
2023-03-13T10:52:09.887Z,4.83
2023-03-13T10:57:20.902Z,3.50
2023-03-13T11:02:36.244Z,4.33
2023-03-13T11:07:41.871Z,5.27
2023-03-13T11:12:51.420Z,4.50
2023-03-13T11:18:08.858Z,4.23
2023-03-13T11:23:23.470Z,5.90
2023-03-13T11:28:47.174Z,5.30
2023-03-13T11:34:26.994Z,7.30
2023-03-13T11:39:47.755Z,5.13
2023-03-13T11:45:11.396Z,9.17
2023-03-13T11:50:29.399Z,5.13
2023-03-13T11:55:42.498Z,9.53
2023-03-13T12:00:55.865Z,6.13
2023-03-13T12:06:27.338Z,8.53
2023-03-13T12:11:32.720Z,5.27
2023-03-13T12:16:47.581Z,8.00
2023-03-13T12:21:55.816Z,6.30
2023-03-13T12:27:04.422Z,4.07
2023-03-13T12:32:37.197Z,6.27
2023-03-13T12:37:59.238Z,4.93
2023-03-13T12:43:07.655Z,5.23
2023-03-13T12:48:37.087Z,6.17
2023-03-13T12:54:08.815Z,3.50
2023-03-13T12:59:23.192Z,3.93
2023-03-13T13:04:31.669Z,3.77
2023-03-13T13:09:40.194Z,6.07
2023-03-13T13:14:54.585Z,4.63
2023-03-13T13:20:00.048Z,3.87
2023-03-13T13:25:30.899Z,4.77
2023-03-13T13:30:37.001Z,2.63
2023-03-13T13:35:42.741Z,2.47
2023-03-13T13:41:11.895Z,2.80
2023-03-13T13:46:37.071Z,1.67
2023-03-13T13:51:44.274Z,2.83
2023-03-13T13:57:13.320Z,2.03
2023-03-13T14:02:27.894Z,1.40
2023-03-13T14:07:39.208Z,1.50
2023-03-13T14:12:50.740Z,3.00
2023-03-13T14:18:14.585Z,1.33
2023-03-13T14:23:35.022Z,1.70
2023-03-13T14:28:43.507Z,1.77
2023-03-13T14:33:49.400Z,3.00
2023-03-13T14:39:00.172Z,2.73
2023-03-13T14:44:20.746Z,1.87
2023-03-13T14:49:30.760Z,1.50
2023-03-13T14:54:42.146Z,1.30
2023-03-13T14:59:48.612Z,1.77
2023-03-13T15:05:01.843Z,1.13
2023-03-13T15:10:28.704Z,2.80
2023-03-13T15:15:34.234Z,1.33
2023-03-13T15:20:39.730Z,1.23
2023-03-13T15:25:45.633Z,1.37
2023-03-13T15:30:53.229Z,1.43
2023-03-13T15:35:59.081Z,1.37
2023-03-13T15:41:05.213Z,1.13
2023-03-13T15:46:16.958Z,1.50
2023-03-13T15:51:23.241Z,1.20
2023-03-13T15:56:32.307Z,1.07
2023-03-13T16:01:38.891Z,1.60
2023-03-13T16:06:44.423Z,0.90
2023-03-13T16:11:50.372Z,1.10
2023-03-13T16:16:56.182Z,1.10
2023-03-13T16:22:01.645Z,2.70
2023-03-13T16:27:16.216Z,1.10
2023-03-13T16:32:23.338Z,2.13
2023-03-13T16:37:28.882Z,2.40
2023-03-13T16:42:34.409Z,1.87
2023-03-13T16:47:40.493Z,1.97
2023-03-13T16:52:46.048Z,3.27
2023-03-13T16:57:52.487Z,1.60
2023-03-13T17:02:58.833Z,2.10
2023-03-13T17:08:04.477Z,2.40
2023-03-13T17:13:09.957Z,2.90
2023-03-13T17:18:15.600Z,1.67
2023-03-13T17:23:21.095Z,2.20
2023-03-13T17:28:26.543Z,2.80
2023-03-13T17:33:32.206Z,2.00
2023-03-13T17:38:37.659Z,1.37
2023-03-13T17:43:44.108Z,1.43
2023-03-13T17:48:52.444Z,1.63
2023-03-13T17:54:01.173Z,1.63
2023-03-13T17:59:09.631Z,2.13
2023-03-13T18:04:15.364Z,2.40
2023-03-13T18:09:23.002Z,3.43
2023-03-13T18:14:28.664Z,2.33
2023-03-13T18:19:34.180Z,1.53
2023-03-13T18:24:39.629Z,2.87
2023-03-13T18:29:46.365Z,2.53
2023-03-13T18:34:51.941Z,1.97
2023-03-13T18:40:00.622Z,2.70
2023-03-13T18:45:07.552Z,2.57
2023-03-13T18:50:31.205Z,1.40
2023-03-13T18:55:36.580Z,1.40
2023-03-13T19:00:42.165Z,1.73
2023-03-13T19:05:47.918Z,2.27
2023-03-13T19:10:53.494Z,1.77
2023-03-13T19:15:59.003Z,2.30
2023-03-13T19:21:04.472Z,1.60
2023-03-13T19:26:12.974Z,2.40
2023-03-13T19:31:18.815Z,1.80
2023-03-13T19:36:25.720Z,2.77
2023-03-13T19:41:31.179Z,1.60
2023-03-13T19:46:38.765Z,2.07
2023-03-13T19:51:45.582Z,2.20
2023-03-13T19:56:53.628Z,2.57
2023-03-13T20:02:00.910Z,4.00
2023-03-13T20:07:06.456Z,2.20
2023-03-13T20:12:11.992Z,1.77
2023-03-13T20:17:17.473Z,1.80
2023-03-13T20:22:23.291Z,2.40
2023-03-13T20:27:28.780Z,1.83
2023-03-13T20:32:34.345Z,2.50
2023-03-13T20:37:40.046Z,3.03
2023-03-13T20:42:45.538Z,3.40
2023-03-13T20:47:51.371Z,3.30
2023-03-13T20:52:56.770Z,3.53
2023-03-13T20:58:02.302Z,3.03
2023-03-13T21:03:07.886Z,3.40
2023-03-13T21:08:14.489Z,2.07
2023-03-13T21:13:19.938Z,3.77
2023-03-13T21:18:25.369Z,1.80
2023-03-13T21:23:31.623Z,1.33
2023-03-13T21:28:37.276Z,2.47
2023-03-13T21:33:43.698Z,2.53
2023-03-13T21:38:50.835Z,1.93
2023-03-13T21:43:56.609Z,2.63
2023-03-13T21:49:02.407Z,2.00
2023-03-13T21:54:08.116Z,2.23
2023-03-13T21:59:13.765Z,2.67
2023-03-13T22:04:19.220Z,2.73
2023-03-13T22:09:24.843Z,2.90
2023-03-13T22:14:30.400Z,2.53
2023-03-13T22:19:35.923Z,2.07
2023-03-13T22:24:41.461Z,2.50
2023-03-13T22:29:47.778Z,4.23
2023-03-13T22:34:53.572Z,3.33
2023-03-13T22:39:58.994Z,3.10
2023-03-13T22:45:05.246Z,3.47
2023-03-13T22:50:12.609Z,3.67
2023-03-13T22:55:18.336Z,2.60
2023-03-13T23:00:23.889Z,3.30
2023-03-13T23:05:30.582Z,3.50
2023-03-13T23:10:37.599Z,3.90
2023-03-13T23:15:59.223Z,3.50
2023-03-13T23:20:50.996Z,3.53
2023-03-13T23:25:56.369Z,2.40
2023-03-13T23:31:03.326Z,2.60
2023-03-13T23:36:14.443Z,2.30
2023-03-13T23:41:21.863Z,3.63
2023-03-13T23:46:27.718Z,1.60
2023-03-13T23:51:33.181Z,2.60
2023-03-13T23:56:38.641Z,4.13
